LFSN/ENC METAR and TAF weather

Enter ICAO airport designator
Station Type Date Time Source
LFSN METAR 2021/09/24 00:00 UTC NOAA

LFSN 240000Z AUTO 11002KT CAVOK 09/08 Q1020


Station Type Date Time Source
LFSN Decoded METAR 2021/09/24 00:00 UTC NOAA

Nancy / Essey, France (LFSN) 48-41N 006-13E 217M
Sep 23, 2021 - 08:00 PM EDT / 2021.09.24 0000 UTC
Wind: from the ESE (110 degrees) at 2 MPH (2 KT):0
Visibility: greater than 7 mile(s):0
Temperature: 48 F (9 C)
Dew Point: 46 F (8 C)
Relative Humidity: 93%
Pressure (altimeter): 30.12 in. Hg (1020 hPa)
ob: LFSN 240000Z AUTO 11002KT CAVOK 09/08 Q1020
cycle: 0

Station Type Date Time Source
LFSN TAF 2012/03/14 16:58 UTC NOAA

TAF LFSN 141600Z 1416/1512 CNL

Example: see airport list